Youngstown, Ohio
Current Conditions -  °F | °C
As of 9:51 PM on Wednesday 22 Oct 2014 (Local Time) from KYNG Reporting Station
Broken Clouds Broken Clouds  
Wind Chill: 41°   Ceiling: 4000
Heat Index: 44°   Visibility: 10mi
Dew Point: 41°   Wind: 6mph
Humidity: 89%   Direction: 330°NNW
Pressure: 30.21"   Gusts: NA
Location:  41.1°N, 80.65°W
Report Text: KYNG 230151Z 33005KT 10SM FEW017 BKN040 07/05 A3021 RMK AO2 SLP238 T00670050
Loading
Personal Weather Stations






























Interactive Weather Map
Tropical Storm Tracking
New forecast layout! Learn more

10-Day Weather Forecast

Advertisements
Track Severe Weather on mobile